createdAt,value
2023-03-18T00:02:16.157Z,4.20
2023-03-18T00:04:43.492Z,4.19
2023-03-18T00:07:10.875Z,4.18
2023-03-18T00:09:38.516Z,4.17
2023-03-18T00:12:06.506Z,4.16
2023-03-18T00:14:37.812Z,4.11
2023-03-18T00:17:06.026Z,4.10
2023-03-18T00:19:33.665Z,4.07
2023-03-18T00:22:00.669Z,4.08
2023-03-18T00:24:28.304Z,4.06
2023-03-18T00:26:56.018Z,4.06
2023-03-18T00:29:24.881Z,4.05
2023-03-18T00:31:52.069Z,4.04
2023-03-18T00:34:21.051Z,4.00
2023-03-18T00:36:50.848Z,3.95
2023-03-18T00:39:21.550Z,3.98
2023-03-18T00:41:48.895Z,3.94
2023-03-18T00:44:16.076Z,3.96
2023-03-18T00:46:43.563Z,3.93
2023-03-18T00:49:10.988Z,3.94
2023-03-18T00:51:39.497Z,3.90
2023-03-18T00:54:10.973Z,3.92
2023-03-18T00:56:39.231Z,3.89
2023-03-18T00:59:08.584Z,3.89
2023-03-18T01:01:36.689Z,3.88
2023-03-18T01:04:04.817Z,3.85
2023-03-18T01:06:35.575Z,3.84
2023-03-18T01:09:05.182Z,3.82
2023-03-18T01:11:33.321Z,3.80
2023-03-18T01:14:01.853Z,3.81
2023-03-18T01:16:30.090Z,3.78
2023-03-18T01:18:58.296Z,3.73
2023-03-18T01:21:25.466Z,3.78
2023-03-18T01:23:56.380Z,3.75
2023-03-18T01:26:26.045Z,3.70
2023-03-18T01:28:55.004Z,3.70
2023-03-18T01:31:24.192Z,3.70
2023-03-18T01:33:52.620Z,3.66
2023-03-18T01:36:19.622Z,3.68
2023-03-18T01:39:00.694Z,3.64
2023-03-18T01:41:28.688Z,3.60
2023-03-18T01:43:55.945Z,3.55
2023-03-18T01:46:39.308Z,3.51
2023-03-18T01:49:15.544Z,3.53
2023-03-18T01:51:50.274Z,3.55
2023-03-18T01:54:19.778Z,3.47
2023-03-18T01:56:49.368Z,3.45
2023-03-18T01:59:18.032Z,3.44
2023-03-18T02:02:02.793Z,3.42
2023-03-18T02:04:39.736Z,3.41
2023-03-18T02:07:07.946Z,3.37
2023-03-18T02:09:35.256Z,3.41
2023-03-18T02:12:06.356Z,3.38
2023-03-18T02:14:33.945Z,3.36
2023-03-18T02:17:15.227Z,3.37
2023-03-18T02:20:20.464Z,3.31
2023-03-18T02:22:58.950Z,3.25
2023-03-18T02:25:55.205Z,3.27
2023-03-18T02:28:28.197Z,3.26
2023-03-18T02:31:01.365Z,3.25
2023-03-18T02:33:38.796Z,3.21
2023-03-18T02:36:20.296Z,3.15
2023-03-18T02:38:48.652Z,3.12
2023-03-18T02:41:28.533Z,3.08
2023-03-18T02:43:56.153Z,3.08
2023-03-18T02:46:47.619Z,3.06
2023-03-18T02:49:17.815Z,3.03
2023-03-18T02:51:46.502Z,2.99
2023-03-18T02:54:18.401Z,3.00
2023-03-18T02:56:46.024Z,2.96
2023-03-18T02:59:13.708Z,2.96
2023-03-18T03:01:46.838Z,2.91
2023-03-18T03:04:16.278Z,2.90
2023-03-18T03:06:44.716Z,2.89
2023-03-18T03:09:17.160Z,2.88
2023-03-18T03:11:47.166Z,2.84
2023-03-18T03:14:19.835Z,2.81
2023-03-18T03:16:51.818Z,2.79
2023-03-18T03:19:18.768Z,2.78
2023-03-18T03:21:46.042Z,2.76
2023-03-18T03:24:13.206Z,2.73
2023-03-18T03:26:40.470Z,2.72
2023-03-18T03:29:07.552Z,2.70
2023-03-18T03:31:35.086Z,2.68
2023-03-18T03:34:02.682Z,2.65
2023-03-18T03:36:30.779Z,2.65
2023-03-18T03:38:57.981Z,2.61
2023-03-18T03:41:26.353Z,2.59
2023-03-18T03:43:53.453Z,2.59
2023-03-18T03:46:20.800Z,2.55
2023-03-18T03:48:48.052Z,2.54
2023-03-18T03:51:15.475Z,2.54
2023-03-18T03:53:43.747Z,2.54
2023-03-18T03:56:11.965Z,2.52
2023-03-18T03:58:39.479Z,2.49
2023-03-18T04:01:08.500Z,2.45
2023-03-18T04:03:35.703Z,2.42
2023-03-18T04:06:07.466Z,2.40
2023-03-18T04:08:38.574Z,2.40
2023-03-18T04:11:05.792Z,2.35
2023-03-18T04:13:33.732Z,2.36
2023-03-18T04:16:01.065Z,2.36
2023-03-18T04:18:28.214Z,2.30
2023-03-18T04:20:55.700Z,2.27
2023-03-18T04:23:36.511Z,2.27
2023-03-18T04:26:05.328Z,2.24
2023-03-18T04:28:33.275Z,2.23
2023-03-18T04:31:01.788Z,2.20
2023-03-18T04:33:28.901Z,2.19
2023-03-18T04:35:56.514Z,2.16
2023-03-18T04:38:24.489Z,2.14
2023-03-18T04:40:53.185Z,2.13
2023-03-18T04:43:20.577Z,2.10
2023-03-18T04:45:50.502Z,2.08
2023-03-18T04:48:18.415Z,2.05
2023-03-18T04:50:46.560Z,2.03
2023-03-18T04:53:19.820Z,2.04
2023-03-18T04:55:50.781Z,2.01
2023-03-18T04:58:20.116Z,1.99
2023-03-18T05:00:59.700Z,1.99
2023-03-18T05:03:34.713Z,2.01
2023-03-18T05:06:02.997Z,1.98
2023-03-18T05:08:40.984Z,1.97
2023-03-18T05:11:08.189Z,1.98
2023-03-18T05:13:37.359Z,1.98
2023-03-18T05:16:06.574Z,1.96
2023-03-18T05:18:34.796Z,1.98
2023-03-18T05:21:05.139Z,2.01
2023-03-18T05:23:32.513Z,2.04
2023-03-18T05:26:00.000Z,2.07
2023-03-18T05:28:29.992Z,2.08
2023-03-18T05:31:24.786Z,2.12
2023-03-18T05:33:52.908Z,2.11
2023-03-18T05:36:20.863Z,2.14
2023-03-18T05:39:02.293Z,2.12
2023-03-18T05:41:30.977Z,2.12
2023-03-18T05:43:58.119Z,2.11
2023-03-18T05:46:29.003Z,2.12
2023-03-18T05:49:08.773Z,2.12
2023-03-18T05:51:46.412Z,2.15
2023-03-18T05:54:19.933Z,2.16
2023-03-18T05:56:47.212Z,2.17
2023-03-18T05:59:16.082Z,2.19
2023-03-18T06:01:50.592Z,2.25
2023-03-18T06:04:19.311Z,2.29
2023-03-18T06:06:46.990Z,2.34
2023-03-18T06:09:15.238Z,2.41
2023-03-18T06:11:45.589Z,2.43
2023-03-18T06:14:13.020Z,2.47
2023-03-18T06:16:42.145Z,2.53
2023-03-18T06:19:10.734Z,2.61
2023-03-18T06:21:39.700Z,2.70
2023-03-18T06:24:08.050Z,2.84
2023-03-18T06:26:35.620Z,2.99
2023-03-18T06:29:05.182Z,3.16
2023-03-18T06:31:33.781Z,3.33
2023-03-18T06:34:04.312Z,3.46
2023-03-18T06:36:34.791Z,3.62
2023-03-18T06:39:04.864Z,3.76
2023-03-18T06:41:33.496Z,3.86
2023-03-18T06:44:19.188Z,3.95
2023-03-18T06:46:47.281Z,4.07
2023-03-18T06:49:17.137Z,4.19
2023-03-18T06:51:51.363Z,4.35
2023-03-18T06:54:18.595Z,4.47
2023-03-18T06:56:46.757Z,4.57
2023-03-18T06:59:19.146Z,4.74
2023-03-18T07:01:47.055Z,4.83
2023-03-18T07:04:17.392Z,4.94
2023-03-18T07:06:45.449Z,5.10
2023-03-18T07:09:15.112Z,5.23
2023-03-18T07:11:44.143Z,5.34
2023-03-18T07:14:14.716Z,5.44
2023-03-18T07:16:43.337Z,5.50
2023-03-18T07:19:11.510Z,5.57
2023-03-18T07:21:40.025Z,5.65
2023-03-18T07:24:07.285Z,5.70
2023-03-18T07:26:35.383Z,5.78
2023-03-18T07:29:03.350Z,5.86
2023-03-18T07:31:30.865Z,6.07
2023-03-18T07:33:57.985Z,6.23
2023-03-18T07:36:26.835Z,6.30
2023-03-18T07:38:53.942Z,6.45
2023-03-18T07:41:21.182Z,6.66
2023-03-18T07:43:48.670Z,6.84
2023-03-18T07:46:15.892Z,6.83
2023-03-18T07:48:42.751Z,7.01
2023-03-18T07:51:10.229Z,7.27
2023-03-18T07:53:38.211Z,7.32
2023-03-18T07:56:06.064Z,7.39
2023-03-18T07:58:33.144Z,7.54
2023-03-18T08:01:00.593Z,7.56
2023-03-18T08:03:29.319Z,7.88
2023-03-18T08:05:57.323Z,8.01
2023-03-18T08:08:24.827Z,8.10
2023-03-18T08:10:57.233Z,8.25
2023-03-18T08:13:25.775Z,8.57
2023-03-18T08:15:54.052Z,9.06
2023-03-18T08:18:21.396Z,9.17
2023-03-18T08:20:49.253Z,9.27
2023-03-18T08:23:16.374Z,9.38
2023-03-18T08:25:48.088Z,9.62
2023-03-18T08:28:17.030Z,9.75
2023-03-18T08:30:44.913Z,9.90
2023-03-18T08:33:11.960Z,10.04
2023-03-18T08:35:43.747Z,10.23
2023-03-18T08:38:11.016Z,10.46
2023-03-18T08:40:41.262Z,10.78
2023-03-18T08:43:09.152Z,10.96
2023-03-18T08:45:37.726Z,11.10
2023-03-18T08:48:06.368Z,11.29
2023-03-18T08:50:36.010Z,11.52
2023-03-18T08:53:04.627Z,11.54
2023-03-18T08:55:37.178Z,11.79
2023-03-18T08:58:06.441Z,12.01
2023-03-18T09:00:37.680Z,12.16
2023-03-18T09:03:05.686Z,12.15
2023-03-18T09:05:33.186Z,12.28
2023-03-18T09:08:00.633Z,12.34
2023-03-18T09:10:30.143Z,12.45
2023-03-18T09:12:57.346Z,12.61
2023-03-18T09:15:24.887Z,12.69
2023-03-18T09:18:09.885Z,12.59
2023-03-18T09:20:39.150Z,12.78
2023-03-18T09:23:08.722Z,13.12
2023-03-18T09:25:36.254Z,13.21
2023-03-18T09:28:03.629Z,13.18
2023-03-18T09:30:32.011Z,13.14
2023-03-18T09:32:59.574Z,13.17
2023-03-18T09:35:29.073Z,13.36
2023-03-18T09:37:56.324Z,13.63
2023-03-18T09:40:36.260Z,14.08
2023-03-18T09:43:32.198Z,14.45
2023-03-18T09:46:21.927Z,15.26
2023-03-18T09:49:33.219Z,16.11
2023-03-18T09:52:19.051Z,17.03
2023-03-18T09:55:42.153Z,17.64
2023-03-18T09:58:20.335Z,17.69
2023-03-18T10:00:48.280Z,17.44
2023-03-18T10:03:34.586Z,16.66
2023-03-18T10:06:17.972Z,15.56
2023-03-18T10:09:14.719Z,15.26
2023-03-18T10:11:47.867Z,15.19
2023-03-18T10:14:27.359Z,15.25
2023-03-18T10:17:30.136Z,15.34
2023-03-18T10:20:06.323Z,15.45
2023-03-18T10:22:57.662Z,15.88
2023-03-18T10:25:48.808Z,16.17
2023-03-18T10:28:56.431Z,15.91
2023-03-18T10:31:54.702Z,16.03
2023-03-18T10:34:33.768Z,15.95
2023-03-18T10:37:17.915Z,15.87
2023-03-18T10:39:48.362Z,15.76
2023-03-18T10:42:30.002Z,15.74
2023-03-18T10:45:17.241Z,15.96
2023-03-18T10:47:57.878Z,15.94
2023-03-18T10:51:03.796Z,16.11
2023-03-18T10:53:49.111Z,16.59
2023-03-18T10:56:16.146Z,16.70
2023-03-18T10:58:43.693Z,16.68
2023-03-18T11:01:19.077Z,16.69
2023-03-18T11:04:06.634Z,16.81
2023-03-18T11:06:55.829Z,16.87
2023-03-18T11:09:36.293Z,16.64
2023-03-18T11:12:19.006Z,16.56
2023-03-18T11:14:51.352Z,17.25
2023-03-18T11:17:28.042Z,17.52
2023-03-18T11:20:25.179Z,17.62
2023-03-18T11:22:56.056Z,17.16
2023-03-18T11:25:30.026Z,17.03
2023-03-18T11:28:06.443Z,17.21
2023-03-18T11:30:48.400Z,17.51
2023-03-18T11:33:17.804Z,17.25
2023-03-18T11:36:05.464Z,17.70
2023-03-18T11:38:38.180Z,18.17
2023-03-18T11:41:25.497Z,18.44
2023-03-18T11:44:00.070Z,18.17
2023-03-18T11:46:55.311Z,18.08
2023-03-18T11:49:28.511Z,17.84
2023-03-18T11:52:28.176Z,17.92
2023-03-18T11:55:20.176Z,17.88
2023-03-18T11:58:48.297Z,17.77
2023-03-18T12:01:39.847Z,18.09
2023-03-18T12:05:09.526Z,18.48
2023-03-18T12:08:20.687Z,18.65
2023-03-18T12:11:16.162Z,18.37
2023-03-18T12:14:52.277Z,18.36
2023-03-18T12:17:47.079Z,17.93
2023-03-18T12:20:49.479Z,18.35
2023-03-18T12:23:49.111Z,17.88
2023-03-18T12:26:53.493Z,18.16
2023-03-18T12:29:57.992Z,18.10
2023-03-18T12:32:46.624Z,18.21
2023-03-18T12:35:35.140Z,18.50
2023-03-18T12:38:42.125Z,17.92
2023-03-18T12:41:39.659Z,17.96
2023-03-18T12:44:40.054Z,17.95
2023-03-18T12:47:29.804Z,17.27
2023-03-18T12:50:14.505Z,17.75
2023-03-18T12:52:48.338Z,17.80
2023-03-18T12:55:29.353Z,17.77
2023-03-18T12:58:19.042Z,17.23
2023-03-18T13:48:00.624Z,17.17
2023-03-18T13:50:37.356Z,17.54
2023-03-18T13:53:27.349Z,16.95
2023-03-18T13:55:57.728Z,16.94
2023-03-18T13:58:34.729Z,17.37
2023-03-18T14:01:29.205Z,17.45
2023-03-18T14:04:07.689Z,16.65
2023-03-18T14:06:34.913Z,16.96
2023-03-18T14:09:25.371Z,16.84
2023-03-18T14:12:20.579Z,16.66
2023-03-18T14:14:51.466Z,16.61
2023-03-18T14:17:58.656Z,17.05
2023-03-18T14:20:40.080Z,16.82
2023-03-18T14:23:37.215Z,16.69
2023-03-18T14:26:29.777Z,16.88
2023-03-18T14:29:26.529Z,16.96
2023-03-18T14:32:08.314Z,16.73
2023-03-18T14:34:58.955Z,16.84
2023-03-18T14:37:32.998Z,16.89
2023-03-18T14:40:28.064Z,17.10
2023-03-18T14:43:06.571Z,16.60
2023-03-18T14:45:44.754Z,16.25
2023-03-18T14:48:21.535Z,16.54
2023-03-18T14:50:53.255Z,16.29
2023-03-18T14:53:38.477Z,16.77
2023-03-18T14:56:17.578Z,16.80
2023-03-18T14:58:47.558Z,16.78
2023-03-18T15:01:17.675Z,16.37
2023-03-18T15:03:50.746Z,16.12
2023-03-18T15:06:25.492Z,15.88
2023-03-18T15:09:09.725Z,15.87
2023-03-18T15:11:44.452Z,15.97
2023-03-18T15:14:19.793Z,16.13
2023-03-18T15:16:53.489Z,16.23
2023-03-18T15:19:22.017Z,15.53
2023-03-18T15:21:49.580Z,15.85
2023-03-18T15:24:23.012Z,16.06
2023-03-18T15:27:04.496Z,16.09
2023-03-18T15:29:37.215Z,16.04
2023-03-18T15:32:29.208Z,15.78
2023-03-18T15:35:26.588Z,15.98
2023-03-18T15:38:20.574Z,16.09
2023-03-18T15:41:02.454Z,16.10
2023-03-18T15:43:41.277Z,15.94
2023-03-18T15:46:24.794Z,15.78
2023-03-18T15:48:57.738Z,15.80
2023-03-18T15:51:43.812Z,15.67
2023-03-18T15:54:39.740Z,15.57
2023-03-18T15:57:25.562Z,15.57
2023-03-18T15:59:53.949Z,15.56
2023-03-18T16:02:22.534Z,15.51
2023-03-18T16:04:50.385Z,15.54
2023-03-18T16:07:22.184Z,15.56
2023-03-18T16:09:51.234Z,15.54
2023-03-18T16:12:22.698Z,15.55
2023-03-18T16:14:52.316Z,15.52
2023-03-18T16:17:22.197Z,15.43
2023-03-18T16:19:54.318Z,15.39
2023-03-18T16:22:22.003Z,15.40
2023-03-18T16:24:49.816Z,15.36
2023-03-18T16:27:33.028Z,15.30
2023-03-18T16:30:00.273Z,15.26
2023-03-18T16:32:28.553Z,15.22
2023-03-18T16:34:55.568Z,15.18
2023-03-18T16:37:27.739Z,15.17
2023-03-18T16:39:57.804Z,15.11
2023-03-18T16:42:25.276Z,15.08
2023-03-18T16:44:52.854Z,15.05
2023-03-18T16:47:27.693Z,15.00
2023-03-18T16:49:56.343Z,14.98
2023-03-18T16:52:23.609Z,14.96
2023-03-18T16:54:50.840Z,14.92
2023-03-18T16:57:21.646Z,14.86
2023-03-18T16:59:55.816Z,14.76
2023-03-18T17:02:35.160Z,14.62
2023-03-18T17:05:02.292Z,14.51
2023-03-18T17:07:29.622Z,14.43
2023-03-18T17:09:56.632Z,14.36
2023-03-18T17:12:24.879Z,14.31
2023-03-18T17:14:56.039Z,14.25
2023-03-18T17:17:38.141Z,14.22
2023-03-18T17:20:20.960Z,14.20
2023-03-18T17:22:49.026Z,14.17
2023-03-18T17:25:16.319Z,14.11
2023-03-18T17:28:03.002Z,14.01
2023-03-18T17:30:39.336Z,13.91
2023-03-18T17:33:25.773Z,13.81
2023-03-18T17:35:54.155Z,13.71
2023-03-18T17:38:21.896Z,13.62
2023-03-18T17:40:50.567Z,13.54
2023-03-18T17:43:31.672Z,13.49
2023-03-18T17:46:00.898Z,13.44
2023-03-18T17:48:37.387Z,13.41
2023-03-18T17:51:12.981Z,13.33
2023-03-18T17:53:59.451Z,13.23
2023-03-18T17:56:27.895Z,13.15
2023-03-18T17:58:55.198Z,13.05
2023-03-18T18:01:28.878Z,12.97
2023-03-18T18:03:59.583Z,12.92
2023-03-18T18:06:29.520Z,12.85
2023-03-18T18:09:02.332Z,12.80
2023-03-18T18:11:44.086Z,12.74
2023-03-18T18:14:21.453Z,12.66
2023-03-18T18:16:49.918Z,12.57
2023-03-18T18:19:18.931Z,12.49
2023-03-18T18:21:47.129Z,12.43
2023-03-18T18:24:28.836Z,12.39
2023-03-18T18:26:56.363Z,12.35
2023-03-18T18:29:28.114Z,12.29
2023-03-18T18:31:55.261Z,12.23
2023-03-18T18:34:22.655Z,12.18
2023-03-18T18:36:50.675Z,12.12
2023-03-18T18:39:18.195Z,12.07
2023-03-18T18:41:46.289Z,12.00
2023-03-18T18:44:14.079Z,11.93
2023-03-18T18:46:41.505Z,11.88
2023-03-18T18:49:22.877Z,11.80
2023-03-18T18:51:55.969Z,11.76
2023-03-18T18:54:24.443Z,11.71
2023-03-18T18:56:52.146Z,11.63
2023-03-18T18:59:30.999Z,11.58
2023-03-18T19:01:58.593Z,11.50
2023-03-18T19:04:27.320Z,11.46
2023-03-18T19:06:54.558Z,11.40
2023-03-18T19:09:26.487Z,11.35
2023-03-18T19:11:56.255Z,11.30
2023-03-18T19:14:28.084Z,11.23
2023-03-18T19:16:59.107Z,11.15
2023-03-18T19:19:30.905Z,11.11
2023-03-18T19:21:58.780Z,11.03
2023-03-18T19:24:39.161Z,11.00
2023-03-18T19:27:23.530Z,10.92
2023-03-18T19:29:53.403Z,10.87
2023-03-18T19:32:23.300Z,10.79
2023-03-18T19:34:52.930Z,10.71
2023-03-18T19:37:32.321Z,10.66
2023-03-18T19:40:13.710Z,10.66
2023-03-18T19:42:41.066Z,10.57
2023-03-18T19:45:13.141Z,10.50
2023-03-18T19:47:41.972Z,10.43
2023-03-18T19:50:16.320Z,10.38
2023-03-18T19:52:43.764Z,10.34
2023-03-18T19:55:15.881Z,10.27
2023-03-18T19:57:48.060Z,10.23
2023-03-18T20:00:24.735Z,10.17
2023-03-18T20:02:53.136Z,10.11
2023-03-18T20:05:23.531Z,10.05
2023-03-18T20:07:50.910Z,10.00
2023-03-18T20:10:21.305Z,9.93
2023-03-18T20:12:50.820Z,9.86
2023-03-18T20:15:33.063Z,9.80
2023-03-18T20:18:00.880Z,9.74
2023-03-18T20:20:32.576Z,9.71
2023-03-18T20:23:12.496Z,9.66
2023-03-18T20:25:44.669Z,9.62
2023-03-18T20:28:18.819Z,9.58
2023-03-18T20:30:50.983Z,9.50
2023-03-18T20:33:22.846Z,9.46
2023-03-18T20:35:53.525Z,9.43
2023-03-18T20:38:31.547Z,9.38
2023-03-18T20:41:00.367Z,9.32
2023-03-18T20:43:28.875Z,9.27
2023-03-18T20:45:58.928Z,9.17
2023-03-18T20:48:27.805Z,9.12
2023-03-18T20:50:56.506Z,9.10
2023-03-18T20:53:28.073Z,9.07
2023-03-18T20:55:56.042Z,9.05
2023-03-18T20:58:27.373Z,9.02
2023-03-18T21:00:55.012Z,8.99
2023-03-18T21:03:32.193Z,8.95
2023-03-18T21:06:03.733Z,8.91
2023-03-18T21:08:31.986Z,8.85
2023-03-18T21:11:02.035Z,8.78
2023-03-18T21:13:30.647Z,8.71
2023-03-18T21:15:59.724Z,8.68
2023-03-18T21:18:27.673Z,8.64
2023-03-18T21:20:56.656Z,8.59
2023-03-18T21:23:31.642Z,8.54
2023-03-18T21:26:00.370Z,8.50
2023-03-18T21:28:30.020Z,8.45
2023-03-18T21:30:58.590Z,8.38
2023-03-18T21:33:31.266Z,8.38
2023-03-18T21:35:59.813Z,8.33
2023-03-18T21:38:30.537Z,8.29
2023-03-18T21:41:00.761Z,8.29
2023-03-18T21:43:37.351Z,8.20
2023-03-18T21:46:12.625Z,8.15
2023-03-18T21:48:40.396Z,8.11
2023-03-18T21:51:37.138Z,8.05
2023-03-18T21:54:06.217Z,8.01
2023-03-18T21:56:33.491Z,7.96
2023-03-18T21:59:00.534Z,7.95
2023-03-18T22:01:32.073Z,7.92
2023-03-18T22:03:59.314Z,7.85
2023-03-18T22:06:26.575Z,7.83
2023-03-18T22:08:53.530Z,7.76
2023-03-18T22:11:24.836Z,7.66
2023-03-18T22:13:52.104Z,7.61
2023-03-18T22:16:19.408Z,7.58
2023-03-18T22:18:47.467Z,7.52
2023-03-18T22:21:23.162Z,7.50
2023-03-18T22:23:51.006Z,7.49
2023-03-18T22:26:20.062Z,7.45
2023-03-18T22:28:47.806Z,7.41
2023-03-18T22:31:22.626Z,7.36
2023-03-18T22:33:49.813Z,7.34
2023-03-18T22:36:19.578Z,7.34
2023-03-18T22:38:46.614Z,7.28
2023-03-18T22:41:21.000Z,7.22
2023-03-18T22:43:48.929Z,7.22
2023-03-18T22:46:16.370Z,7.20
2023-03-18T22:48:43.691Z,7.10
2023-03-18T22:51:26.042Z,7.10
2023-03-18T22:53:54.498Z,7.03
2023-03-18T22:56:22.900Z,6.94
2023-03-18T22:58:51.202Z,6.93
2023-03-18T23:01:31.600Z,6.91
2023-03-18T23:03:58.819Z,6.91
2023-03-18T23:06:27.092Z,6.89
2023-03-18T23:08:54.164Z,6.83
2023-03-18T23:11:21.514Z,6.78
2023-03-18T23:13:50.143Z,6.73
2023-03-18T23:16:21.848Z,6.65
2023-03-18T23:18:50.427Z,6.65
2023-03-18T23:21:21.808Z,6.63
2023-03-18T23:23:50.261Z,6.56
2023-03-18T23:26:17.669Z,6.49
2023-03-18T23:28:45.730Z,6.40
2023-03-18T23:31:15.372Z,6.42
2023-03-18T23:33:43.099Z,6.41
2023-03-18T23:36:11.846Z,6.37
2023-03-18T23:38:39.249Z,6.31
2023-03-18T23:41:07.247Z,6.23
2023-03-18T23:43:34.358Z,6.20
2023-03-18T23:46:02.262Z,6.17
2023-03-18T23:48:29.799Z,6.15
2023-03-18T23:50:57.061Z,6.11
2023-03-18T23:53:24.495Z,6.05
2023-03-18T23:55:51.685Z,6.05
2023-03-18T23:58:18.967Z,6.02
